SM2 weather

CLOSED Miguasha Airport
Miguasha, Quebec, Canada

Public forecast

Using degrees Celsius for public forecast. Weather courtesy of forecast.io.

Closest aviation weather report (METAR) to Miguasha Airport

Closest report is Bathurst Airport, 34.6 nm (64.1 km) SE. Retrieved 2020/01/25 01:00 UTC (37 minutes ago):

CZBF 250100Z AUTO 23003KT 9SM CLR M15/M17 A3055 RMK SLP353

Closest aviation forecast (TAF) to Miguasha Airport

Closest forecast is Bathurst Airport, 34.6 nm (64.1 km) SE. Retrieved 2020-01-25 02:00 UTC (0 seconds ago):

TAF CZBF 250138Z 2502/2504 VRB03KT P6SM FEW020 PROB30 2502/2504 2SM BR RMK FCST BASED ON AUTO OBS NXT FCST WILL BE ISSUED AT 250945Z